x

East Superior -70 Nm Ne Marquette, Mi (45004) Wave Buoy

4:50am - Sun 28th May 2017 All times are CDT. -5 hours from GMT.

  • Sig Wave height 0.3ft
  • Average Period 3s
  • Wind
    9mph, 11mph gusts
  • Sea Temp 37°f
  • Air Temp 41°f
  • Sea Pressure 1007.2mb
  • East Superior -70 Nm Ne Marquette, Mi
  • East Superior -70 Nm Ne Marquette, Mi

More Historic Weather Station data

Upgrade to MSW Pro to gain access to the past 30 days of data for over 8000 Wavebouys and Weather Stations around the globe.

Join Pro

Comparision Forecast

View Surf forecast
   
Sun 05/28 4:50am 0.3ft  -  3s 9 11 mph 1007.2mb 37f 41f
3:50am 0.3ft  -  3s 7 7 mph 1007.6mb 37f 41f
2:50am 0.3ft  -  3s 4 7 mph 1008mb 37f 40f
1:50am 0.3ft  -  3s 4 7 mph 1008.2mb 37f 44f
12:50am 0.3ft  -  3s 4 7 mph 1008.6mb 37f 42f
Sat 05/27 11:50pm 0.3ft  -  3s 7 7 mph 1008.7mb 37f 46f
10:50pm 0.3ft  -  3s 4 7 mph 1008.9mb 38f 48f
9:50pm 0.3ft  -  3s 4 7 mph 1009.6mb 38f 44f
8:50pm 0.3ft  -  3s 7 7 mph 1009.3mb 38f 45f
7:50pm 0.3ft  -  3s  -  2 mph 1009.2mb 38f 44f
6:50pm 0.3ft  -  3s 2 2 mph 1009.6mb 38f 43f
5:50pm 0.7ft  -  3s 2 4 mph 1010.5mb 38f 41f
4:50pm 0.7ft  -  3s 2 4 mph 1010.7mb 38f 41f
3:50pm 0.3ft  -  3s 4 7 mph 1010.6mb 38f 40f
2:50pm 0.3ft  -  3s 2 4 mph 1010.2mb 38f 42f
1:50pm 0.7ft  -  2s 4 4 mph 1010.3mb 38f 41f
12:50pm 0.7ft  -  2s 7 9 mph 1010.3mb 38f 41f
11:50am 0.7ft  -  3s 7 9 mph 1010.4mb 38f 41f
10:50am 0.7ft  -  3s 9 9 mph 1009.9mb 38f 41f
9:50am 0.3ft  -  2s 7 7 mph 1010.1mb 37f 40f
8:50am 0.7ft  -  2s 11 13 mph 1010.2mb 37f 41f
7:50am 0.3ft  -  2s 11 13 mph 1010.6mb 37f 41f
6:50am 0.3ft  -  3s 11 13 mph 1010.8mb 37f 42f
5:50am 0.3ft  -  3s 11 13 mph 1010.5mb 37f 41f
4:50am 0.3ft  -  3s 11 11 mph 1009.7mb 37f 41f
3:50am 0.3ft  -  3s 9 9 mph 1010.1mb 37f 40f
2:50am 0.3ft  -  3s 9 11 mph 1010.1mb 37f 43f
1:50am 0.3ft  -  2s 4 7 mph 1010.5mb 37f 45f
12:50am 0.3ft  -  2s 7 9 mph 1010.5mb 37f 43f
Fri 05/26 11:50pm 0.3ft  -  2s 7 9 mph 1010.6mb 37f 41f
10:50pm 0.3ft  -  3s 11 13 mph 1010.5mb 37f 41f
9:50pm  -   -  4s 11 11 mph 1010.3mb 38f 41f
8:50pm  -   -  4s 9 11 mph 1009.9mb 38f 41f
7:50pm  -   -  4s 9 9 mph 1009.6mb 38f 41f
6:50pm 0.3ft  -  3s 7 9 mph 1009.6mb 38f 41f
5:50pm 0.3ft  -  3s 9 9 mph 1009.1mb 38f 48f
4:50pm  -   -  3s 7 7 mph 1009.6mb 38f 43f
3:50pm  -   -  4s 7 7 mph 1009.7mb 38f 43f
2:50pm  -   -  4s 7 7 mph 1010.3mb 38f 44f
1:50pm  -   -   -  7 7 mph 1010.3mb 38f 44f
12:50pm  -   -  3s 7 7 mph 1010.3mb 38f 44f
11:50am  -   -  4s 4 7 mph 1010.6mb 38f 44f
10:50am  -   -  4s 4 4 mph 1010.3mb 38f 42f
9:50am  -   -  4s 4 7 mph 1010.5mb 38f 42f
8:50am  -   -  4s 4 7 mph 1010.6mb 38f 44f
7:50am  -   -  4s 4 7 mph 1010.6mb 37f 41f
6:50am  -   -  4s 2 2 mph 1010.4mb 37f 41f
5:50am 0.3ft  -  3s 2 4 mph 1010.1mb 37f 41f
4:50am  -   -   -  2 4 mph 1009.5mb 37f 42f
3:50am  -   -  3s 2 2 mph 1009.2mb 37f 42f
2:50am  -   -  3s 2 4 mph 1009mb 37f 43f
1:50am  -   -  3s 7 9 mph 1008.6mb 37f 43f
12:50am  -   -  3s 7 9 mph 1008.6mb 37f 42f
Thu 05/25 11:50pm 0.3ft  -  3s 4 7 mph 1008.7mb 37f 44f
10:50pm 0.3ft  -  3s 4 4 mph 1008.8mb 37f 43f
9:50pm 0.3ft  -  3s 7 7 mph 1008.2mb 38f 43f
8:50pm 0.3ft  -  3s 7 7 mph 1007.5mb 38f 43f
7:50pm 0.3ft  -  3s 7 9 mph 1007.1mb 38f 43f
6:50pm 0.7ft  -  3s 7 9 mph 1006.8mb 38f 43f
5:50pm 0.7ft  -  3s 7 7 mph 1006.6mb 38f 42f
4:50pm 0.7ft  -  3s 7 9 mph 1006.5mb 38f 42f
3:50pm 0.7ft  -  3s 7 7 mph 1006.7mb 38f 42f
2:50pm 0.3ft  -  3s 7 9 mph 1006.9mb 38f 41f
1:50pm 0.3ft  -  2s 7 7 mph 1007mb 38f 43f
12:50pm 0.3ft  -  3s 4 4 mph 1007.3mb 38f 42f
11:50am 0.3ft  -  3s 4 7 mph 1007.5mb 38f 41f
10:50am 0.3ft  -  3s 4 4 mph 1007.5mb 37f 41f
9:50am 0.3ft  -  3s 9 9 mph 1007.5mb 37f 42f
8:50am 0.3ft  -  2s 9 9 mph 1007.7mb 37f 41f
7:50am 0.3ft  -  3s 9 9 mph 1007.7mb 37f 42f
6:50am 0.3ft  -  3s 11 11 mph 1007.5mb 37f 42f
5:50am 0.3ft  -  3s 9 9 mph 1007.4mb 37f 41f
4:50am 0.3ft  -  2s 7 7 mph 1007.8mb 37f 41f
3:50am 0.3ft  -  3s 4 7 mph 1007.6mb 37f 40f
2:50am 0.7ft  -  3s 9 9 mph 1007.1mb 37f 41f
1:50am 0.7ft  -  3s 9 11 mph 1007.2mb 37f 40f
12:50am 0.3ft  -  2s 9 9 mph 1007.8mb 37f 41f
Wed 05/24 11:50pm 0.3ft  -  3s 9 11 mph 1008.2mb 37f 41f
10:50pm 0.3ft  -  3s 11 11 mph 1008mb 37f 41f
9:50pm 0.3ft  -  3s 9 9 mph 1008.2mb 37f 40f
8:50pm 0.3ft  -  3s 7 7 mph 1008.1mb 38f 41f
7:50pm 0.7ft  -  3s 7 9 mph 1008mb 38f 42f
6:50pm 0.7ft  -  3s 4 4 mph 1007.8mb 38f 42f
5:50pm 0.7ft  -  3s 7 7 mph 1007.8mb 38f 42f
4:50pm 1ft 3s 3s 9 9 mph 1008.1mb 38f 42f
3:50pm 1ft 3s 3s 7 7 mph 1008.4mb 38f 41f
2:50pm 1ft 4s 3s 9 9 mph 1008.6mb 37f 41f
1:50pm 1ft 4s 3s 7 9 mph 1008.8mb 37f 40f
12:50pm 1ft 4s 3s 7 7 mph 1009.2mb 37f 40f
11:50am 1ft 3s 3s 4 7 mph 1009.3mb 37f 40f
10:50am 0.7ft  -  3s 9 9 mph 1009.4mb 37f 40f